Time;durP1;ratioP1;P1;durP2;ratioP2;P2;SDS_P1;SDS_P2;PMS_P1;PMS_P2;Temp;Humidity;BMP_temperature;BMP_pressure;BME280_temperature;BME280_humidity;BME280_pressure;Samples;Min_cycle;Max_cycle;Signal;HPM_P1;HPM_P2
2022/03/29 00:01:32;;;;;;;3.05;2.30;;;;;;;16.95;49.06;96484.84;10385120;28;20028;-22
2022/03/29 00:06:32;;;;;;;2.20;2.00;;;;;;;17.04;48.45;96497.53;10382938;28;20033;-22
2022/03/29 00:11:33;;;;;;;2.13;1.92;;;;;;;17.03;48.72;96496.69;10384991;28;20113;-22
2022/03/29 00:16:33;;;;;;;2.67;2.20;;;;;;;17.05;48.27;96486.56;10384139;28;20026;-21
2022/03/29 00:21:34;;;;;;;3.88;2.78;;;;;;;17.15;53.37;96483.22;10388809;28;20037;-22
2022/03/29 00:26:34;;;;;;;2.95;2.28;;;;;;;17.26;53.74;96471.44;10382395;28;20057;-22
2022/03/29 00:31:35;;;;;;;2.50;2.30;;;;;;;17.29;52.71;96464.69;10379709;28;20034;-22
2022/03/29 00:36:36;;;;;;;2.78;2.10;;;;;;;17.17;49.45;96457.06;10383923;28;20806;-22
2022/03/29 00:41:37;;;;;;;3.58;2.65;;;;;;;17.10;48.69;96457.06;10382069;28;20095;-22
2022/03/29 00:46:39;;;;;;;2.65;2.08;;;;;;;17.06;48.74;96451.16;10382791;28;20026;-21
2022/03/29 00:51:39;;;;;;;1.75;1.65;;;;;;;17.06;48.92;96445.28;10370681;28;20033;-22
2022/03/29 00:56:40;;;;;;;2.30;1.90;;;;;;;17.05;48.96;96433.44;10380759;28;20045;-21
2022/03/29 01:01:40;;;;;;;2.75;1.88;;;;;;;17.04;48.68;96427.56;10381164;28;20289;-22
2022/03/29 01:06:42;;;;;;;2.45;1.90;;;;;;;17.06;48.86;96425.03;10390493;28;20521;-22
2022/03/29 01:11:43;;;;;;;1.73;1.63;;;;;;;17.04;48.38;96421.66;10383888;28;20026;-22
2022/03/29 01:22:07;;;;;;;1.92;1.75;;;;;;;17.04;48.69;96409.00;10384171;28;20033;-21
2022/03/29 01:27:08;;;;;;;3.95;1.75;;;;;;;17.04;48.48;96403.94;10378329;28;20036;-22
2022/03/29 01:32:09;;;;;;;4.47;2.10;;;;;;;17.24;53.50;96402.28;10385114;28;20045;-22
2022/03/29 01:37:10;;;;;;;3.40;2.55;;;;;;;17.29;53.31;96392.97;10379977;28;20066;-22
2022/03/29 01:42:11;;;;;;;4.43;2.70;;;;;;;17.24;50.26;96389.63;10382418;28;20485;-22
2022/03/29 01:47:12;;;;;;;2.50;1.85;;;;;;;17.12;48.65;96382.03;10379158;28;20030;-22
2022/03/29 01:52:13;;;;;;;2.10;1.90;;;;;;;17.07;49.01;96376.16;10383556;28;20030;-22
2022/03/29 01:57:14;;;;;;;1.95;1.83;;;;;;;17.07;48.62;96371.91;10378016;28;20048;-21
2022/03/29 02:02:14;;;;;;;2.27;1.73;;;;;;;17.06;48.72;96369.41;10380734;28;20393;-21
2022/03/29 02:07:16;;;;;;;2.93;2.50;;;;;;;17.07;48.58;96376.16;10386465;28;20413;-21
2022/03/29 02:12:17;;;;;;;2.10;1.90;;;;;;;17.06;48.77;96370.22;10376990;28;20355;-22
2022/03/29 02:17:17;;;;;;;1.93;1.70;;;;;;;17.05;48.82;96362.63;10385144;28;20490;-21
2022/03/29 02:22:17;;;;;;;1.90;1.60;;;;;;;17.05;48.41;96363.50;10378636;28;20057;-22
2022/03/29 02:27:18;;;;;;;2.27;1.90;;;;;;;17.05;48.72;96358.44;10377683;28;20371;-22
2022/03/29 02:32:18;;;;;;;1.85;1.70;;;;;;;17.04;48.62;96351.69;10373592;28;20293;-21
2022/03/29 02:37:19;;;;;;;2.53;2.05;;;;;;;17.19;52.97;96343.25;10383633;28;20041;-23
2022/03/29 02:42:19;;;;;;;5.68;2.63;;;;;;;17.28;53.53;96335.66;10380154;28;20030;-22
2022/03/29 02:47:20;;;;;;;1.90;1.70;;;;;;;17.26;51.55;96333.09;10376467;28;20029;-22
2022/03/29 02:52:20;;;;;;;2.22;2.00;;;;;;;17.13;48.85;96328.06;10377514;28;20339;-22
2022/03/29 02:57:21;;;;;;;1.90;1.70;;;;;;;17.09;48.67;96326.41;10376114;28;20494;-22
2022/03/29 03:02:22;;;;;;;2.10;1.90;;;;;;;17.06;48.70;96311.25;10380843;28;20398;-22
2022/03/29 03:07:23;;;;;;;2.13;1.80;;;;;;;17.01;48.37;96301.13;10381672;28;20037;-22
2022/03/29 03:12:23;;;;;;;1.80;1.60;;;;;;;17.05;48.33;96307.00;10378808;28;20034;-22
2022/03/29 03:17:23;;;;;;;1.60;1.50;;;;;;;17.05;48.70;96305.31;10380485;28;20040;-21
2022/03/29 03:22:24;;;;;;;2.07;1.83;;;;;;;17.01;48.71;96300.28;10383925;28;20414;-22
2022/03/29 03:27:25;;;;;;;2.30;1.80;;;;;;;17.06;48.52;96298.59;10385097;28;20041;-22
2022/03/29 03:32:25;;;;;;;1.77;1.60;;;;;;;17.05;48.62;96297.75;10390289;28;20597;-21
2022/03/29 03:37:28;;;;;;;2.70;1.70;;;;;;;17.05;48.62;96286.78;10387036;28;20042;-22
2022/03/29 03:42:29;;;;;;;3.80;2.45;;;;;;;17.18;53.02;96285.91;10388074;28;20640;-27
2022/03/29 03:47:29;;;;;;;2.73;2.03;;;;;;;17.27;53.43;96294.34;10384737;28;20041;-21
2022/03/29 03:52:30;;;;;;;2.85;2.03;;;;;;;17.29;52.12;96286.72;10388217;28;20034;-21
2022/03/29 03:57:30;;;;;;;2.10;1.87;;;;;;;17.17;49.30;96271.59;10388999;28;20041;-21
2022/03/29 04:02:31;;;;;;;1.60;1.42;;;;;;;17.16;48.51;96264.84;10388027;28;20300;-21
2022/03/29 04:07:31;;;;;;;2.10;1.77;;;;;;;17.17;48.45;96261.47;10387099;28;20045;-22
2022/03/29 04:12:32;;;;;;;2.00;1.80;;;;;;;17.17;48.54;96256.41;10383221;28;20784;-21
2022/03/29 04:17:32;;;;;;;1.80;1.70;;;;;;;17.16;48.07;96257.25;10386363;28;20059;-21
2022/03/29 04:22:32;;;;;;;1.83;1.50;;;;;;;17.18;48.26;96253.88;10386368;28;20494;-22
2022/03/29 04:27:33;;;;;;;1.73;1.63;;;;;;;17.18;48.26;96242.91;10383971;28;20036;-21
2022/03/29 04:32:36;;;;;;;1.90;1.63;;;;;;;17.18;48.22;96237.84;10381865;28;20026;-21
2022/03/29 04:37:37;;;;;;;2.15;1.75;;;;;;;17.18;48.26;96246.31;10384451;28;20117;-21
2022/03/29 04:42:49;;;;;;;1.80;1.50;;;;;;;17.18;47.93;96237.84;10385297;28;20102;-21
2022/03/29 04:47:49;;;;;;;6.68;2.40;;;;;;;17.19;50.37;96232.81;10381356;28;20409;-22
2022/03/29 04:52:50;;;;;;;5.10;1.98;;;;;;;17.38;51.98;96231.94;10380969;28;20033;-21
2022/03/29 04:57:51;;;;;;;11.82;2.70;;;;;;;17.45;51.79;96228.53;10378163;28;20037;-21
2022/03/29 05:02:52;;;;;;;7.13;4.15;;;;;;;17.35;48.47;96224.31;10382365;28;20108;-21
2022/03/29 05:07:52;;;;;;;10.82;5.25;;;;;;;17.14;45.77;96218.50;10388148;28;20059;-22
2022/03/29 05:12:52;;;;;;;3.13;2.00;;;;;;;17.13;47.54;96219.31;10381258;28;20548;-22
2022/03/29 05:17:53;;;;;;;5.87;2.37;;;;;;;17.16;48.09;96219.31;10384844;28;20288;-22
2022/03/29 05:22:57;;;;;;;2.43;2.20;;;;;;;17.16;48.40;96219.31;10383863;28;20298;-22
2022/03/29 05:27:58;;;;;;;7.93;2.75;;;;;;;17.13;48.65;96209.19;10385450;28;20334;-22
2022/03/29 05:33:00;;;;;;;12.85;5.30;;;;;;;16.88;45.01;96212.63;10376975;28;20056;-21
2022/03/29 05:38:02;;;;;;;9.23;3.50;;;;;;;17.02;46.96;96214.31;10383903;28;20025;-21
2022/03/29 05:43:02;;;;;;;3.63;2.22;;;;;;;17.08;47.27;96213.44;10383419;28;20026;-21
2022/03/29 05:53:23;;;;;;;4.28;2.60;;;;;;;17.10;47.69;96219.34;10381735;28;20049;-21
2022/03/29 05:58:24;;;;;;;10.93;4.20;;;;;;;17.27;50.01;96204.94;10377467;28;20410;-21
2022/03/29 06:03:24;;;;;;;13.23;3.92;;;;;;;17.32;49.94;96211.66;10382904;28;20041;-21
2022/03/29 06:08:24;;;;;;;8.13;3.00;;;;;;;17.29;49.04;96221.81;10385854;28;20029;-21
2022/03/29 06:13:25;;;;;;;3.67;2.40;;;;;;;17.20;48.03;96226.91;10379197;28;20037;-21
2022/03/29 06:18:26;;;;;;;4.13;2.42;;;;;;;17.16;48.24;96229.44;10385646;28;20354;-21
2022/03/29 06:23:27;;;;;;;3.83;2.20;;;;;;;17.15;48.15;96232.81;10378403;28;20573;-22
2022/03/29 06:28:29;;;;;;;2.80;2.20;;;;;;;17.12;48.30;96223.53;10377092;28;20026;-21
2022/03/29 06:33:30;;;;;;;3.92;2.10;;;;;;;17.11;48.11;96229.47;10379465;28;20293;-21
2022/03/29 06:38:31;;;;;;;2.90;2.07;;;;;;;17.12;48.25;96237.88;10374434;28;20040;-22
2022/03/29 06:43:34;;;;;;;3.17;2.25;;;;;;;17.12;48.29;96240.41;10380434;28;20030;-21
2022/03/29 06:48:35;;;;;;;3.45;2.35;;;;;;;17.10;48.23;96237.03;10376746;28;20036;-21
2022/03/29 06:53:39;;;;;;;3.75;2.75;;;;;;;17.10;48.32;96248.00;10378953;28;20423;-21
2022/03/29 06:58:40;;;;;;;2.92;1.90;;;;;;;17.10;48.56;96239.56;10385908;28;20040;-21
2022/03/29 07:03:40;;;;;;;5.70;3.00;;;;;;;17.22;51.46;96242.91;10394915;28;20370;-21
2022/03/29 07:14:00;;;;;;;3.25;2.55;;;;;;;17.36;49.62;96230.25;10389383;28;20509;-21
2022/03/29 07:19:01;;;;;;;3.50;2.35;;;;;;;17.22;48.85;96229.41;10387880;28;20037;-21
2022/03/29 07:24:03;;;;;;;2.70;1.95;;;;;;;17.15;48.58;96233.66;10391139;28;20413;-22
2022/03/29 07:29:04;;;;;;;2.08;1.88;;;;;;;17.13;48.59;96226.91;10390955;28;20095;-21
2022/03/29 07:34:05;;;;;;;3.05;1.88;;;;;;;17.08;48.39;96226.91;10394299;28;20060;-21
2022/03/29 07:39:06;;;;;;;2.50;1.90;;;;;;;17.11;48.75;96231.97;10388711;28;20030;-22
2022/03/29 07:44:06;;;;;;;2.23;2.03;;;;;;;17.09;48.56;96226.06;10392697;28;20017;-21
2022/03/29 07:49:06;;;;;;;4.50;2.27;;;;;;;17.10;48.46;96234.50;10395487;28;20033;-21
2022/03/29 07:54:07;;;;;;;3.23;2.03;;;;;;;17.09;48.63;96222.72;10391002;28;20665;-21
2022/03/29 07:59:07;;;;;;;4.20;2.00;;;;;;;17.09;48.04;96217.66;10388837;28;20291;-21
2022/03/29 08:04:09;;;;;;;2.07;1.87;;;;;;;17.07;48.55;96209.22;10398184;28;20076;-20
2022/03/29 08:09:10;;;;;;;4.05;2.50;;;;;;;17.10;49.19;96206.69;10388227;28;20042;-21
2022/03/29 08:14:12;;;;;;;4.37;2.83;;;;;;;17.34;52.14;96209.13;10386275;28;20030;-21
2022/03/29 08:19:13;;;;;;;1.98;1.77;;;;;;;17.38;49.48;96205.75;10385767;28;20034;-21
2022/03/29 08:24:14;;;;;;;2.13;1.83;;;;;;;17.25;49.18;96199.06;10380994;28;20109;-21
2022/03/29 08:29:16;;;;;;;2.17;1.75;;;;;;;17.17;48.53;96188.13;10389122;28;20044;-21
2022/03/29 08:34:17;;;;;;;2.40;1.60;;;;;;;17.11;48.73;96186.47;10382154;28;20084;-22
2022/03/29 08:39:18;;;;;;;2.50;2.15;;;;;;;17.10;48.50;96188.97;10382257;28;20036;-22
2022/03/29 08:44:19;;;;;;;2.43;2.03;;;;;;;17.09;48.58;96172.94;10384308;28;20050;-22
2022/03/29 08:49:20;;;;;;;2.10;1.90;;;;;;;17.09;48.77;96172.13;10386076;28;20551;-21
2022/03/29 08:54:20;;;;;;;1.90;1.77;;;;;;;17.02;48.78;96150.22;10385252;28;20068;-22
2022/03/29 08:59:21;;;;;;;1.50;1.40;;;;;;;17.09;48.72;96156.97;10378989;28;20113;-21
2022/03/29 09:04:23;;;;;;;2.85;1.90;;;;;;;17.09;48.78;96151.91;10391419;28;20299;-21
2022/03/29 09:09:34;;;;;;;2.55;2.00;;;;;;;17.10;48.59;96148.53;10382113;28;20454;-21
2022/03/29 09:14:59;;;;;;;5.30;2.42;;;;;;;17.12;50.80;96136.69;10379619;28;20391;-21
2022/03/29 09:20:00;;;;;;;3.67;2.38;;;;;;;17.34;51.72;96134.06;10382922;28;20120;-21
2022/03/29 09:25:01;;;;;;;2.55;1.98;;;;;;;17.42;50.34;96121.41;10389521;28;20029;-21
2022/03/29 09:30:07;;;;;;;2.28;1.70;;;;;;;17.26;49.04;96119.78;10384799;28;20065;-21
2022/03/29 09:35:12;;;;;;;2.22;1.83;;;;;;;17.19;48.33;96118.13;10381091;28;20112;-21
2022/03/29 09:40:13;;;;;;;2.05;1.75;;;;;;;17.15;48.83;96126.59;10380364;28;20026;-21
2022/03/29 09:45:40;;;;;;;2.08;1.60;;;;;;;17.12;48.64;96109.72;10363507;28;20129;-21
2022/03/29 09:50:40;;;;;;;1.80;1.70;;;;;;;17.10;48.76;96097.94;10386273;28;20076;-21
2022/03/29 09:55:41;;;;;;;2.00;1.58;;;;;;;17.10;48.63;96100.47;10379074;28;20054;-21
2022/03/29 10:00:43;;;;;;;2.50;1.90;;;;;;;17.08;48.58;96090.34;10380037;28;20022;-21
2022/03/29 10:05:49;;;;;;;2.47;2.13;;;;;;;17.10;48.98;96087.81;10388553;28;20089;-20
2022/03/29 10:10:50;;;;;;;2.53;2.00;;;;;;;17.09;48.91;96078.56;10379644;28;20034;-21
2022/03/29 10:15:55;;;;;;;1.73;1.33;;;;;;;17.08;48.83;96079.41;10384319;28;20125;-22
2022/03/29 10:20:57;;;;;;;2.15;1.77;;;;;;;17.12;48.81;96081.06;10382195;28;20036;-21
2022/03/29 10:25:58;;;;;;;3.85;2.25;;;;;;;17.35;51.78;96053.97;10376033;28;20037;-20
2022/03/29 10:30:59;;;;;;;2.58;1.95;;;;;;;17.45;51.21;96042.94;10376450;28;20060;-21
2022/03/29 10:36:11;;;;;;;1.70;1.60;;;;;;;17.36;48.80;96040.47;10378082;28;20121;-21
2022/03/29 10:41:32;;;;;;;1.80;1.70;;;;;;;17.18;48.21;96026.25;10378536;28;20029;-21
2022/03/29 10:46:48;;;;;;;2.13;1.90;;;;;;;17.22;48.37;96027.03;10357730;28;20146;-21
2022/03/29 10:51:50;;;;;;;2.17;1.98;;;;;;;17.20;48.55;96018.63;10381084;28;20425;-21
2022/03/29 10:57:00;;;;;;;9.57;2.70;;;;;;;17.18;49.50;96007.69;10376789;28;20437;-21
2022/03/29 11:02:20;;;;;;;7.40;2.20;;;;;;;17.19;48.81;96011.91;10382331;28;20404;-21
2022/03/29 11:07:20;;;;;;;7.15;2.00;;;;;;;17.18;48.72;95990.84;10380663;28;20038;-22
2022/03/29 11:12:38;;;;;;;4.83;2.30;;;;;;;17.18;48.85;95984.91;10377461;28;20042;-21
2022/03/29 11:17:40;;;;;;;4.35;3.10;;;;;;;17.17;48.82;95978.19;10384110;28;20057;-21
2022/03/29 11:22:43;;;;;;;4.47;1.95;;;;;;;17.18;48.63;95968.06;10379719;28;20465;-21
2022/03/29 11:27:44;;;;;;;3.28;1.63;;;;;;;17.20;48.85;95968.03;10378399;28;20137;-21
2022/03/29 11:32:46;;;;;;;5.07;2.10;;;;;;;17.45;50.06;95961.97;10380996;28;20383;-22
2022/03/29 11:37:49;;;;;;;4.97;2.60;;;;;;;17.58;50.38;95955.97;10375098;28;20705;-21
2022/03/29 11:42:59;;;;;;;4.65;1.90;;;;;;;17.45;49.09;95936.69;10381751;28;20084;-21
2022/03/29 11:48:04;;;;;;;7.82;1.65;;;;;;;17.30;48.69;95934.22;10384859;28;20212;-21
2022/03/29 11:53:33;;;;;;;2.28;1.85;;;;;;;17.24;48.77;95929.25;10388388;28;20120;-21
2022/03/29 11:58:38;;;;;;;3.78;2.33;;;;;;;17.20;48.93;95927.56;10378374;28;20040;-21
2022/03/29 12:03:54;;;;;;;2.88;1.60;;;;;;;17.18;48.68;95930.13;10389943;28;20410;-21
2022/03/29 12:08:59;;;;;;;2.20;1.55;;;;;;;17.17;48.98;95917.50;10383805;28;20033;-21
2022/03/29 12:14:20;;;;;;;2.53;1.67;;;;;;;17.13;48.83;95905.69;10386583;28;20502;-21
2022/03/29 12:19:27;;;;;;;3.72;2.05;;;;;;;17.16;48.99;95904.00;10385284;28;20258;-21
2022/03/29 12:24:33;;;;;;;3.25;2.13;;;;;;;17.16;48.83;95891.34;10389553;28;20037;-21
2022/03/29 12:29:41;;;;;;;5.88;2.40;;;;;;;17.11;48.95;95882.13;10387198;28;20022;-22
2022/03/29 12:34:43;;;;;;;8.52;2.97;;;;;;;17.18;48.82;95876.16;10381105;28;20088;-21
2022/03/29 12:39:45;;;;;;;4.65;2.55;;;;;;;17.46;50.16;95875.09;10384506;28;20026;-21
2022/03/29 12:44:54;;;;;;;9.25;3.05;;;;;;;17.59;50.23;95872.44;10384256;28;20128;-21
2022/03/29 12:49:54;;;;;;;3.72;2.30;;;;;;;17.41;48.92;95846.47;10391196;28;20402;-21
2022/03/29 12:55:00;;;;;;;5.57;2.33;;;;;;;17.35;48.87;95856.63;10384788;28;20064;-21
2022/03/29 13:00:09;;;;;;;9.07;3.17;;;;;;;17.30;48.80;95850.75;10379561;28;20022;-21
2022/03/29 13:05:10;;;;;;;10.05;2.90;;;;;;;17.27;49.59;95848.25;10388318;28;20053;-22
2022/03/29 13:10:15;;;;;;;32.28;4.55;;;;;;;17.22;48.60;95834.81;10382501;28;20083;-21
2022/03/29 13:15:41;;;;;;;14.73;4.10;;;;;;;17.24;48.91;95820.47;10378983;28;20034;-21
2022/03/29 13:20:42;;;;;;;4.57;3.40;;;;;;;17.26;49.92;95816.25;10380873;28;20387;-21
2022/03/29 13:25:42;;;;;;;12.38;4.18;;;;;;;17.26;48.97;95808.66;10378204;28;20034;-22
2022/03/29 13:30:42;;;;;;;4.33;2.87;;;;;;;17.26;49.09;95801.88;10386869;28;20041;-22
2022/03/29 13:35:44;;;;;;;6.47;3.90;;;;;;;17.23;48.67;95791.81;10381175;28;20030;-22
2022/03/29 13:40:46;;;;;;;18.25;4.90;;;;;;;17.23;48.93;95780.88;10381128;28;20076;-21
2022/03/29 13:45:46;;;;;;;9.70;4.97;;;;;;;17.40;52.41;95779.84;10385103;28;20034;-21
2022/03/29 13:50:47;;;;;;;12.85;5.65;;;;;;;17.49;51.63;95773.88;10388029;28;20313;-21
2022/03/29 13:55:48;;;;;;;12.73;4.77;;;;;;;17.44;51.22;95770.53;10377761;28;20075;-21
2022/03/29 14:00:48;;;;;;;20.13;5.05;;;;;;;17.36;49.64;95762.19;10377770;28;20843;-22
2022/03/29 14:05:49;;;;;;;12.15;4.10;;;;;;;17.26;49.39;95751.28;10387531;28;20127;-21
2022/03/29 14:10:49;;;;;;;13.07;3.83;;;;;;;17.29;49.94;95747.91;10380565;28;20104;-21
2022/03/29 14:15:49;;;;;;;6.77;3.20;;;;;;;17.24;48.88;95737.00;10382977;28;20044;-21
2022/03/29 14:20:52;;;;;;;9.83;4.20;;;;;;;17.22;49.10;95731.09;10381740;28;20041;-22
2022/03/29 14:25:54;;;;;;;10.00;4.05;;;;;;;17.21;49.02;95722.69;10375366;28;20033;-22
2022/03/29 14:30:57;;;;;;;12.73;4.82;;;;;;;17.22;48.70;95723.53;10383215;28;20057;-21
2022/03/29 14:35:57;;;;;;;11.95;4.20;;;;;;;17.20;48.77;95722.72;10380223;28;20103;-21
2022/03/29 14:40:57;;;;;;;11.77;4.10;;;;;;;17.20;48.98;95712.59;10377321;28;20075;-21
2022/03/29 14:46:00;;;;;;;14.13;3.47;;;;;;;17.19;48.71;95710.91;10376562;28;20095;-20
2022/03/29 14:51:03;;;;;;;11.15;5.75;;;;;;;17.37;52.83;95705.69;10381983;28;20642;-21
2022/03/29 14:56:03;;;;;;;11.00;4.90;;;;;;;17.46;52.26;95708.94;10378927;28;20126;-21
2022/03/29 15:01:04;;;;;;;6.45;3.83;;;;;;;17.47;50.72;95694.59;10377312;28;20114;-21
2022/03/29 15:06:04;;;;;;;10.15;5.10;;;;;;;17.39;51.42;95697.22;10377400;28;20083;-21
2022/03/29 15:11:04;;;;;;;10.77;4.72;;;;;;;17.34;49.99;95690.50;10380491;28;20026;-22
2022/03/29 15:16:05;;;;;;;7.43;4.60;;;;;;;17.29;48.99;95694.78;10375565;28;20045;-21
2022/03/29 15:21:06;;;;;;;8.55;4.47;;;;;;;17.27;49.00;95694.81;10390480;28;20076;-21
2022/03/29 15:26:06;;;;;;;6.50;3.80;;;;;;;17.26;48.99;95677.94;10385303;28;20033;-22
2022/03/29 15:31:07;;;;;;;9.10;4.53;;;;;;;17.25;49.18;95685.56;10383365;28;20091;-21
2022/03/29 15:36:07;;;;;;;7.67;3.57;;;;;;;17.22;48.79;95683.91;10387843;28;20360;-21
2022/03/29 15:41:08;;;;;;;6.35;4.07;;;;;;;17.23;49.06;95677.16;10384418;28;20291;-21
2022/03/29 15:46:10;;;;;;;8.05;4.53;;;;;;;17.22;48.84;95673.78;10385240;28;20128;-21
2022/03/29 15:51:10;;;;;;;8.10;4.43;;;;;;;17.22;49.14;95683.91;10388613;28;20493;-21
2022/03/29 15:56:11;;;;;;;7.70;4.03;;;;;;;17.35;51.91;95684.59;10384383;28;20033;-21
2022/03/29 16:01:11;;;;;;;13.33;4.97;;;;;;;17.48;52.30;95686.16;10384229;28;20521;-21
2022/03/29 16:06:12;;;;;;;8.03;4.33;;;;;;;17.50;51.37;95674.31;10387499;28;20076;-23
2022/03/29 16:11:13;;;;;;;20.95;5.22;;;;;;;17.43;51.72;95667.66;10381473;28;20038;-23
2022/03/29 16:16:14;;;;;;;24.30;5.88;;;;;;;17.35;51.61;95666.88;10390011;28;20040;-23
2022/03/29 16:21:15;;;;;;;12.98;4.60;;;;;;;17.36;51.42;95658.47;10385394;28;21256;-22
2022/03/29 16:26:17;;;;;;;18.63;6.13;;;;;;;17.32;50.09;95659.34;10379091;28;20124;-23
2022/03/29 16:31:19;;;;;;;15.25;5.32;;;;;;;17.29;49.23;95646.72;10385632;28;20040;-22
2022/03/29 16:36:25;;;;;;;9.88;4.50;;;;;;;17.30;50.54;95638.28;10385735;28;20048;-22
2022/03/29 16:41:25;;;;;;;12.63;4.80;;;;;;;17.28;48.94;95642.53;10382316;28;20026;-21
2022/03/29 16:46:27;;;;;;;13.93;4.47;;;;;;;17.26;49.15;95640.00;10378859;28;20405;-22
2022/03/29 16:51:27;;;;;;;9.50;5.18;;;;;;;17.31;52.70;95638.25;10386532;28;20026;-22
2022/03/29 16:56:29;;;;;;;10.10;4.47;;;;;;;17.34;52.54;95652.56;10376292;28;20046;-20
2022/03/29 17:01:30;;;;;;;12.80;4.15;;;;;;;17.36;52.85;95639.09;10379125;28;20280;-22
2022/03/29 17:06:32;;;;;;;17.13;4.55;;;;;;;17.49;52.91;95632.16;10374355;28;20040;-21
2022/03/29 17:11:38;;;;;;;13.05;4.95;;;;;;;17.53;52.72;95639.69;10369964;28;20466;-22
2022/03/29 17:16:42;;;;;;;11.53;4.10;;;;;;;17.38;52.29;95633.97;10386458;28;20081;-22
2022/03/29 17:21:43;;;;;;;14.38;4.13;;;;;;;17.31;50.50;95643.31;10373568;28;20026;-22
2022/03/29 17:26:43;;;;;;;11.77;4.63;;;;;;;17.33;51.16;95655.97;10389394;28;20498;-22
2022/03/29 17:31:43;;;;;;;7.57;3.47;;;;;;;17.20;49.42;95640.09;10374824;28;20540;-22
2022/03/29 17:36:44;;;;;;;18.65;4.50;;;;;;;17.32;49.99;95652.56;10372180;28;20293;-22
2022/03/29 17:41:45;;;;;;;19.00;5.15;;;;;;;17.31;50.45;95662.75;10380514;28;20048;-21
2022/03/29 17:46:45;;;;;;;14.70;5.47;;;;;;;17.30;51.93;95666.09;10379374;28;20033;-22
2022/03/29 17:51:45;;;;;;;14.95;5.30;;;;;;;17.31;50.76;95676.19;10372985;28;20225;-22
2022/03/29 17:56:46;;;;;;;17.20;4.70;;;;;;;17.30;50.57;95676.22;10387504;28;20033;-22
2022/03/29 18:01:47;;;;;;;11.25;4.20;;;;;;;17.27;49.04;95681.31;10380710;28;20030;-22
2022/03/29 18:06:48;;;;;;;16.07;5.03;;;;;;;17.30;52.13;95676.22;10372627;28;20044;-23
2022/03/29 18:11:51;;;;;;;22.38;4.95;;;;;;;17.46;54.50;95675.19;10375096;28;20330;-22
2022/03/29 18:16:52;;;;;;;15.20;4.85;;;;;;;17.53;54.31;95676.81;10372300;28;20116;-23
2022/03/29 18:21:52;;;;;;;8.52;4.22;;;;;;;17.45;51.70;95668.47;10373551;28;20059;-21
2022/03/29 18:26:53;;;;;;;7.93;3.60;;;;;;;17.37;49.52;95660.13;10379096;28;20041;-22
2022/03/29 18:31:54;;;;;;;13.80;3.88;;;;;;;17.30;49.34;95661.88;10379544;28;20505;-22
2022/03/29 18:36:56;;;;;;;8.40;4.28;;;;;;;17.27;49.54;95651.81;10382853;28;20065;-22
2022/03/29 18:41:58;;;;;;;11.77;3.67;;;;;;;17.17;49.44;95632.53;10380743;28;20045;-22
2022/03/29 18:46:58;;;;;;;6.15;2.90;;;;;;;17.18;48.90;95629.16;10377320;28;20033;-22
2022/03/29 18:51:59;;;;;;;6.25;2.25;;;;;;;17.19;49.23;95625.78;10388626;28;20029;-22
2022/03/29 18:57:00;;;;;;;9.07;2.92;;;;;;;17.17;49.08;95619.06;10379462;28;20513;-22
2022/03/29 19:02:01;;;;;;;8.93;3.67;;;;;;;17.16;49.01;95618.22;10380790;28;20025;-22
2022/03/29 19:07:01;;;;;;;9.57;2.58;;;;;;;17.17;49.74;95619.06;10382681;28;20057;-22
2022/03/29 19:12:02;;;;;;;3.13;2.10;;;;;;;17.17;49.29;95607.25;10380819;28;20065;-22
2022/03/29 19:17:04;;;;;;;13.05;4.78;;;;;;;17.36;52.99;95605.34;10388954;28;20292;-21
2022/03/29 19:22:05;;;;;;;9.55;3.75;;;;;;;17.46;53.81;95611.94;10383725;28;20034;-23
2022/03/29 19:27:06;;;;;;;12.00;4.00;;;;;;;17.42;51.69;95610.34;10386579;28;20387;-22
2022/03/29 19:32:07;;;;;;;6.45;2.90;;;;;;;17.30;49.74;95618.03;10383968;28;20042;-22
2022/03/29 19:37:09;;;;;;;8.43;3.33;;;;;;;17.23;49.30;95616.47;10383615;28;20068;-22
2022/03/29 19:42:20;;;;;;;5.80;2.63;;;;;;;17.19;49.32;95617.34;10379308;28;20421;-22
2022/03/29 19:47:30;;;;;;;5.32;2.70;;;;;;;17.16;49.18;95609.81;10378976;28;20030;-22
2022/03/29 19:52:30;;;;;;;6.13;4.20;;;;;;;17.14;49.22;95604.75;10380414;28;20379;-22
2022/03/29 19:57:31;;;;;;;8.80;3.57;;;;;;;17.19;49.25;95613.13;10379636;28;20029;-22
2022/03/29 20:02:31;;;;;;;4.32;2.58;;;;;;;17.13;49.08;95598.03;10378455;28;20106;-22
2022/03/29 20:07:34;;;;;;;4.20;2.03;;;;;;;17.13;49.29;95597.19;10387571;28;20092;-22
2022/03/29 20:12:34;;;;;;;4.57;2.50;;;;;;;17.15;49.55;95608.13;10397505;28;20041;-22
2022/03/29 20:17:37;;;;;;;4.65;2.10;;;;;;;17.14;48.99;95603.94;10394540;28;20052;-21
2022/03/29 20:22:38;;;;;;;7.22;3.28;;;;;;;17.26;51.10;95589.41;10382018;28;20017;-21
2022/03/29 20:27:38;;;;;;;12.23;4.93;;;;;;;17.45;55.77;95597.63;10387844;28;20036;-22
2022/03/29 20:32:39;;;;;;;8.70;3.93;;;;;;;17.45;51.96;95593.41;10395802;28;20036;-22
2022/03/29 20:37:40;;;;;;;9.25;3.97;;;;;;;17.33;49.94;95592.72;10385014;28;20037;-21
2022/03/29 20:42:40;;;;;;;10.15;4.40;;;;;;;17.23;49.63;95601.28;10386847;28;20025;-22
2022/03/29 20:47:40;;;;;;;10.37;3.30;;;;;;;17.19;49.42;95595.44;10381614;28;20179;-22
2022/03/29 20:52:41;;;;;;;4.43;3.08;;;;;;;17.12;49.44;95583.72;10389117;28;20785;-21
2022/03/29 20:57:41;;;;;;;6.20;3.10;;;;;;;17.16;49.02;95589.56;10376897;28;20084;-22
2022/03/29 21:02:45;;;;;;;5.90;3.17;;;;;;;17.09;49.23;95560.97;10384500;28;20688;-22
2022/03/29 21:07:45;;;;;;;4.60;2.13;;;;;;;17.12;48.98;95577.81;10386077;28;20034;-22
2022/03/29 21:12:45;;;;;;;6.10;2.77;;;;;;;17.12;49.10;95570.22;10379071;28;20033;-22
2022/03/29 21:17:46;;;;;;;6.57;3.13;;;;;;;17.12;49.24;95568.53;10377514;28;20285;-22
2022/03/29 21:22:47;;;;;;;5.90;3.03;;;;;;;17.11;49.10;95569.41;10382040;28;20033;-22
2022/03/29 21:28:01;;;;;;;7.53;3.00;;;;;;;17.24;52.77;95560.78;10379025;28;20444;-22
2022/03/29 21:33:01;;;;;;;7.90;3.57;;;;;;;17.41;54.87;95561.41;10382385;28;20049;-21
2022/03/29 21:38:02;;;;;;;5.63;3.20;;;;;;;17.44;52.44;95555.47;10374960;28;20026;-22
2022/03/29 21:43:03;;;;;;;6.13;2.85;;;;;;;17.33;50.57;95537.06;10384140;28;20411;-22
2022/03/29 21:48:04;;;;;;;5.97;3.03;;;;;;;17.24;49.93;95549.84;10380187;28;20044;-22
2022/03/29 21:53:06;;;;;;;8.95;3.53;;;;;;;17.24;49.95;95562.50;10385480;28;20383;-21
2022/03/29 21:58:26;;;;;;;8.65;2.97;;;;;;;17.21;49.34;95559.97;10377301;28;20124;-22
2022/03/29 22:03:45;;;;;;;7.75;3.33;;;;;;;17.17;49.37;95545.72;10384785;28;20041;-22
2022/03/29 22:09:04;;;;;;;6.28;2.38;;;;;;;17.15;49.17;95557.56;10382215;28;20346;-21
2022/03/29 22:14:04;;;;;;;2.83;2.10;;;;;;;17.11;49.04;95555.91;10377995;28;20037;-21
2022/03/29 22:19:06;;;;;;;6.43;3.00;;;;;;;17.10;49.14;95546.66;10364956;28;20232;-21
2022/03/29 22:24:07;;;;;;;3.70;2.10;;;;;;;17.10;48.94;95550.03;10377012;28;20029;-22
2022/03/29 22:29:07;;;;;;;7.27;3.40;;;;;;;17.11;49.31;95554.22;10384466;28;20287;-22
2022/03/29 22:34:07;;;;;;;6.70;3.00;;;;;;;17.25;52.85;95544.75;10379501;28;20055;-22
2022/03/29 22:39:08;;;;;;;7.75;3.45;;;;;;;17.39;55.12;95545.44;10378853;28;20091;-22
2022/03/29 22:44:09;;;;;;;4.38;3.33;;;;;;;17.44;53.49;95547.91;10381496;28;20395;-22
2022/03/29 22:49:11;;;;;;;4.70;2.83;;;;;;;17.35;50.88;95528.59;10380415;28;20424;-22
2022/03/29 22:54:11;;;;;;;4.50;2.78;;;;;;;17.25;49.77;95526.22;10381351;28;20037;-22
2022/03/29 22:59:11;;;;;;;4.33;2.73;;;;;;;17.18;49.45;95520.44;10377045;28;20448;-22
2022/03/29 23:04:12;;;;;;;6.13;2.53;;;;;;;17.15;49.73;95514.56;10383623;28;20123;-23
2022/03/29 23:09:12;;;;;;;5.23;2.27;;;;;;;17.13;49.44;95506.16;10381661;28;20299;-23
2022/03/29 23:14:16;;;;;;;3.20;2.47;;;;;;;17.10;49.39;95511.25;10377205;28;20030;-22
2022/03/29 23:19:16;;;;;;;6.50;2.50;;;;;;;17.13;49.37;95507.00;10382146;28;20113;-22
2022/03/29 23:24:17;;;;;;;4.33;2.83;;;;;;;17.15;49.11;95502.75;10383783;28;20030;-22
2022/03/29 23:29:17;;;;;;;9.80;3.25;;;;;;;17.11;49.40;95500.28;10382919;28;20126;-22
2022/03/29 23:34:18;;;;;;;6.45;3.35;;;;;;;17.14;49.62;95501.06;10379158;28;20558;-22
2022/03/29 23:39:18;;;;;;;9.05;2.70;;;;;;;17.18;52.65;95497.66;10380050;28;20108;-22